sensor_id;sensor_type;location;lat;lon;timestamp;P1;durP1;ratioP1;P2;durP2;ratioP2
50319;SDS011;36226;53.464;9.852;2023-11-21T00:00:53;12.00;;;5.45;;
50319;SDS011;36226;53.464;9.852;2023-11-21T00:03:18;11.48;;;5.45;;
50319;SDS011;36226;53.464;9.852;2023-11-21T00:05:44;15.65;;;6.30;;
50319;SDS011;36226;53.464;9.852;2023-11-21T00:08:09;13.77;;;6.25;;
50319;SDS011;36226;53.464;9.852;2023-11-21T00:10:35;14.45;;;6.90;;
50319;SDS011;36226;53.464;9.852;2023-11-21T00:13:03;14.60;;;6.53;;
50319;SDS011;36226;53.464;9.852;2023-11-21T00:15:28;14.70;;;6.72;;
50319;SDS011;36226;53.464;9.852;2023-11-21T00:17:53;18.95;;;7.63;;
50319;SDS011;36226;53.464;9.852;2023-11-21T00:20:19;18.00;;;7.00;;
50319;SDS011;36226;53.464;9.852;2023-11-21T00:22:44;16.88;;;7.00;;
50319;SDS011;36226;53.464;9.852;2023-11-21T00:25:10;20.05;;;7.95;;
50319;SDS011;36226;53.464;9.852;2023-11-21T00:27:36;21.65;;;8.20;;
50319;SDS011;36226;53.464;9.852;2023-11-21T00:30:02;18.35;;;8.50;;
50319;SDS011;36226;53.464;9.852;2023-11-21T00:32:29;21.85;;;8.68;;
50319;SDS011;36226;53.464;9.852;2023-11-21T00:34:54;18.98;;;8.48;;
50319;SDS011;36226;53.464;9.852;2023-11-21T00:37:20;19.30;;;7.95;;
50319;SDS011;36226;53.464;9.852;2023-11-21T00:39:45;16.23;;;8.07;;
50319;SDS011;36226;53.464;9.852;2023-11-21T00:42:10;19.02;;;8.65;;
50319;SDS011;36226;53.464;9.852;2023-11-21T00:44:37;15.30;;;7.22;;
50319;SDS011;36226;53.464;9.852;2023-11-21T00:47:04;16.08;;;7.90;;
50319;SDS011;36226;53.464;9.852;2023-11-21T00:49:29;17.90;;;7.25;;
50319;SDS011;36226;53.464;9.852;2023-11-21T00:51:54;14.10;;;6.90;;
50319;SDS011;36226;53.464;9.852;2023-11-21T00:54:20;14.13;;;6.95;;
50319;SDS011;36226;53.464;9.852;2023-11-21T00:56:45;12.57;;;7.00;;
50319;SDS011;36226;53.464;9.852;2023-11-21T00:59:12;15.80;;;7.50;;
50319;SDS011;36226;53.464;9.852;2023-11-21T01:01:37;14.82;;;7.20;;
50319;SDS011;36226;53.464;9.852;2023-11-21T01:04:03;18.23;;;7.63;;
50319;SDS011;36226;53.464;9.852;2023-11-21T01:06:28;14.68;;;7.75;;
50319;SDS011;36226;53.464;9.852;2023-11-21T01:08:54;15.25;;;7.90;;
50319;SDS011;36226;53.464;9.852;2023-11-21T01:11:20;14.80;;;7.57;;
50319;SDS011;36226;53.464;9.852;2023-11-21T01:13:46;16.25;;;7.50;;
50319;SDS011;36226;53.464;9.852;2023-11-21T01:16:11;16.38;;;8.20;;
50319;SDS011;36226;53.464;9.852;2023-11-21T01:18:36;16.35;;;7.82;;
50319;SDS011;36226;53.464;9.852;2023-11-21T01:21:02;16.75;;;7.68;;
50319;SDS011;36226;53.464;9.852;2023-11-21T01:23:27;13.25;;;6.93;;
50319;SDS011;36226;53.464;9.852;2023-11-21T01:25:53;15.20;;;7.10;;
50319;SDS011;36226;53.464;9.852;2023-11-21T01:28:20;11.57;;;6.85;;
50319;SDS011;36226;53.464;9.852;2023-11-21T01:30:45;14.38;;;6.85;;
50319;SDS011;36226;53.464;9.852;2023-11-21T01:33:11;14.50;;;6.72;;
50319;SDS011;36226;53.464;9.852;2023-11-21T01:35:36;12.98;;;7.80;;
50319;SDS011;36226;53.464;9.852;2023-11-21T01:38:02;14.73;;;8.10;;
50319;SDS011;36226;53.464;9.852;2023-11-21T01:40:27;13.57;;;7.88;;
50319;SDS011;36226;53.464;9.852;2023-11-21T01:42:53;17.95;;;9.20;;
50319;SDS011;36226;53.464;9.852;2023-11-21T01:45:19;19.17;;;9.23;;
50319;SDS011;36226;53.464;9.852;2023-11-21T01:47:44;20.30;;;10.15;;
50319;SDS011;36226;53.464;9.852;2023-11-21T01:50:13;20.60;;;10.15;;
50319;SDS011;36226;53.464;9.852;2023-11-21T01:52:39;17.80;;;9.30;;
50319;SDS011;36226;53.464;9.852;2023-11-21T01:55:06;19.88;;;8.75;;
50319;SDS011;36226;53.464;9.852;2023-11-21T01:57:33;17.45;;;8.68;;
50319;SDS011;36226;53.464;9.852;2023-11-21T01:59:59;20.92;;;9.50;;
50319;SDS011;36226;53.464;9.852;2023-11-21T02:02:40;18.40;;;8.35;;
50319;SDS011;36226;53.464;9.852;2023-11-21T02:05:12;18.20;;;9.57;;
50319;SDS011;36226;53.464;9.852;2023-11-21T02:07:39;18.27;;;8.98;;
50319;SDS011;36226;53.464;9.852;2023-11-21T02:10:05;16.08;;;8.02;;
50319;SDS011;36226;53.464;9.852;2023-11-21T02:12:31;18.17;;;8.95;;
50319;SDS011;36226;53.464;9.852;2023-11-21T02:14:56;15.88;;;8.35;;
50319;SDS011;36226;53.464;9.852;2023-11-21T02:17:22;15.48;;;8.02;;
50319;SDS011;36226;53.464;9.852;2023-11-21T02:19:47;14.15;;;7.72;;
50319;SDS011;36226;53.464;9.852;2023-11-21T02:22:16;13.95;;;7.20;;
50319;SDS011;36226;53.464;9.852;2023-11-21T02:24:42;15.10;;;6.75;;
50319;SDS011;36226;53.464;9.852;2023-11-21T02:27:07;13.27;;;6.20;;
50319;SDS011;36226;53.464;9.852;2023-11-21T02:29:33;11.55;;;6.13;;
50319;SDS011;36226;53.464;9.852;2023-11-21T02:31:58;13.60;;;5.35;;
50319;SDS011;36226;53.464;9.852;2023-11-21T02:34:24;11.95;;;6.07;;
50319;SDS011;36226;53.464;9.852;2023-11-21T02:36:50;10.88;;;5.40;;
50319;SDS011;36226;53.464;9.852;2023-11-21T02:39:16;9.93;;;5.50;;
50319;SDS011;36226;53.464;9.852;2023-11-21T02:41:42;12.55;;;5.60;;
50319;SDS011;36226;53.464;9.852;2023-11-21T02:44:08;9.90;;;5.82;;
50319;SDS011;36226;53.464;9.852;2023-11-21T02:46:33;8.35;;;5.13;;
50319;SDS011;36226;53.464;9.852;2023-11-21T02:49:00;9.90;;;5.68;;
50319;SDS011;36226;53.464;9.852;2023-11-21T02:51:26;9.27;;;5.43;;
50319;SDS011;36226;53.464;9.852;2023-11-21T02:53:51;8.70;;;5.18;;
50319;SDS011;36226;53.464;9.852;2023-11-21T02:56:17;9.13;;;4.70;;
50319;SDS011;36226;53.464;9.852;2023-11-21T02:58:42;8.27;;;4.88;;
50319;SDS011;36226;53.464;9.852;2023-11-21T03:01:11;7.70;;;4.45;;
50319;SDS011;36226;53.464;9.852;2023-11-21T03:03:38;13.35;;;4.65;;
50319;SDS011;36226;53.464;9.852;2023-11-21T03:06:07;8.40;;;4.72;;
50319;SDS011;36226;53.464;9.852;2023-11-21T03:08:33;9.35;;;4.43;;
50319;SDS011;36226;53.464;9.852;2023-11-21T03:10:58;7.53;;;4.20;;
50319;SDS011;36226;53.464;9.852;2023-11-21T03:13:24;7.93;;;4.15;;
50319;SDS011;36226;53.464;9.852;2023-11-21T03:15:49;7.97;;;3.83;;
50319;SDS011;36226;53.464;9.852;2023-11-21T03:18:15;6.55;;;4.13;;
50319;SDS011;36226;53.464;9.852;2023-11-21T03:20:40;6.63;;;4.18;;
50319;SDS011;36226;53.464;9.852;2023-11-21T03:23:06;6.78;;;4.20;;
50319;SDS011;36226;53.464;9.852;2023-11-21T03:25:32;8.07;;;4.40;;
50319;SDS011;36226;53.464;9.852;2023-11-21T03:27:57;10.63;;;5.13;;
50319;SDS011;36226;53.464;9.852;2023-11-21T03:30:22;7.22;;;4.28;;
50319;SDS011;36226;53.464;9.852;2023-11-21T03:32:48;9.45;;;4.32;;
50319;SDS011;36226;53.464;9.852;2023-11-21T03:35:13;7.20;;;4.45;;
50319;SDS011;36226;53.464;9.852;2023-11-21T03:37:39;8.05;;;4.63;;
50319;SDS011;36226;53.464;9.852;2023-11-21T03:40:06;7.55;;;4.53;;
50319;SDS011;36226;53.464;9.852;2023-11-21T03:42:33;8.18;;;4.68;;
50319;SDS011;36226;53.464;9.852;2023-11-21T03:44:59;8.32;;;4.68;;
50319;SDS011;36226;53.464;9.852;2023-11-21T03:47:25;8.63;;;5.15;;
50319;SDS011;36226;53.464;9.852;2023-11-21T03:49:53;7.10;;;4.40;;
50319;SDS011;36226;53.464;9.852;2023-11-21T03:52:18;6.75;;;3.92;;
50319;SDS011;36226;53.464;9.852;2023-11-21T03:54:44;9.80;;;3.90;;
50319;SDS011;36226;53.464;9.852;2023-11-21T03:57:09;7.60;;;4.10;;
50319;SDS011;36226;53.464;9.852;2023-11-21T03:59:34;8.07;;;4.47;;
50319;SDS011;36226;53.464;9.852;2023-11-21T04:02:00;7.07;;;4.25;;
50319;SDS011;36226;53.464;9.852;2023-11-21T04:04:25;7.78;;;4.68;;
50319;SDS011;36226;53.464;9.852;2023-11-21T04:06:50;10.55;;;4.43;;
50319;SDS011;36226;53.464;9.852;2023-11-21T04:09:17;8.23;;;4.53;;
50319;SDS011;36226;53.464;9.852;2023-11-21T04:11:42;8.45;;;4.80;;
50319;SDS011;36226;53.464;9.852;2023-11-21T04:14:08;8.52;;;4.75;;
50319;SDS011;36226;53.464;9.852;2023-11-21T04:16:34;10.88;;;4.30;;
50319;SDS011;36226;53.464;9.852;2023-11-21T04:18:59;9.65;;;5.20;;
50319;SDS011;36226;53.464;9.852;2023-11-21T04:21:25;9.05;;;5.25;;
50319;SDS011;36226;53.464;9.852;2023-11-21T04:23:50;9.38;;;5.68;;
50319;SDS011;36226;53.464;9.852;2023-11-21T04:26:16;12.25;;;5.40;;
50319;SDS011;36226;53.464;9.852;2023-11-21T04:28:41;12.57;;;5.32;;
50319;SDS011;36226;53.464;9.852;2023-11-21T04:31:06;10.43;;;5.50;;
50319;SDS011;36226;53.464;9.852;2023-11-21T04:33:32;8.90;;;5.28;;
50319;SDS011;36226;53.464;9.852;2023-11-21T04:35:58;8.77;;;4.90;;
50319;SDS011;36226;53.464;9.852;2023-11-21T04:38:23;10.40;;;5.25;;
50319;SDS011;36226;53.464;9.852;2023-11-21T04:40:48;10.63;;;5.80;;
50319;SDS011;36226;53.464;9.852;2023-11-21T04:43:14;8.52;;;5.07;;
50319;SDS011;36226;53.464;9.852;2023-11-21T04:45:39;10.32;;;5.13;;
50319;SDS011;36226;53.464;9.852;2023-11-21T04:48:06;11.27;;;5.25;;
50319;SDS011;36226;53.464;9.852;2023-11-21T04:50:32;8.82;;;4.88;;
50319;SDS011;36226;53.464;9.852;2023-11-21T04:52:57;9.13;;;5.18;;
50319;SDS011;36226;53.464;9.852;2023-11-21T04:55:23;10.95;;;5.18;;
50319;SDS011;36226;53.464;9.852;2023-11-21T04:57:48;10.50;;;5.70;;
50319;SDS011;36226;53.464;9.852;2023-11-21T05:00:13;7.65;;;5.07;;
50319;SDS011;36226;53.464;9.852;2023-11-21T05:02:40;9.63;;;5.47;;
50319;SDS011;36226;53.464;9.852;2023-11-21T05:05:06;9.27;;;5.50;;
50319;SDS011;36226;53.464;9.852;2023-11-21T05:07:32;8.65;;;5.18;;
50319;SDS011;36226;53.464;9.852;2023-11-21T05:10:00;10.20;;;5.55;;
50319;SDS011;36226;53.464;9.852;2023-11-21T05:12:30;8.40;;;4.93;;
50319;SDS011;36226;53.464;9.852;2023-11-21T05:14:59;9.35;;;5.13;;
50319;SDS011;36226;53.464;9.852;2023-11-21T05:17:25;10.95;;;5.47;;
50319;SDS011;36226;53.464;9.852;2023-11-21T05:19:51;11.13;;;5.82;;
50319;SDS011;36226;53.464;9.852;2023-11-21T05:22:16;9.10;;;5.35;;
50319;SDS011;36226;53.464;9.852;2023-11-21T05:24:44;11.25;;;5.70;;
50319;SDS011;36226;53.464;9.852;2023-11-21T05:27:10;13.07;;;5.22;;
50319;SDS011;36226;53.464;9.852;2023-11-21T05:29:35;12.35;;;5.78;;
50319;SDS011;36226;53.464;9.852;2023-11-21T05:32:02;10.77;;;6.20;;
50319;SDS011;36226;53.464;9.852;2023-11-21T05:34:28;11.88;;;5.45;;
50319;SDS011;36226;53.464;9.852;2023-11-21T05:36:53;14.32;;;5.47;;
50319;SDS011;36226;53.464;9.852;2023-11-21T05:39:18;10.30;;;5.75;;
50319;SDS011;36226;53.464;9.852;2023-11-21T05:41:44;8.48;;;5.13;;
50319;SDS011;36226;53.464;9.852;2023-11-21T05:44:10;12.52;;;5.78;;
50319;SDS011;36226;53.464;9.852;2023-11-21T05:46:36;11.52;;;4.85;;
50319;SDS011;36226;53.464;9.852;2023-11-21T05:49:01;11.52;;;5.80;;
50319;SDS011;36226;53.464;9.852;2023-11-21T05:51:27;10.95;;;6.25;;
50319;SDS011;36226;53.464;9.852;2023-11-21T05:53:53;11.80;;;5.70;;
50319;SDS011;36226;53.464;9.852;2023-11-21T05:56:18;10.00;;;5.55;;
50319;SDS011;36226;53.464;9.852;2023-11-21T05:58:43;12.60;;;6.00;;
50319;SDS011;36226;53.464;9.852;2023-11-21T06:01:09;10.60;;;5.57;;
50319;SDS011;36226;53.464;9.852;2023-11-21T06:03:37;11.48;;;6.05;;
50319;SDS011;36226;53.464;9.852;2023-11-21T06:06:03;10.25;;;5.95;;
50319;SDS011;36226;53.464;9.852;2023-11-21T06:08:29;10.40;;;6.10;;
50319;SDS011;36226;53.464;9.852;2023-11-21T06:10:54;9.52;;;5.75;;
50319;SDS011;36226;53.464;9.852;2023-11-21T06:13:20;12.10;;;6.15;;
50319;SDS011;36226;53.464;9.852;2023-11-21T06:15:49;14.63;;;6.57;;
50319;SDS011;36226;53.464;9.852;2023-11-21T06:18:14;12.02;;;5.85;;
50319;SDS011;36226;53.464;9.852;2023-11-21T06:20:39;11.68;;;6.25;;
50319;SDS011;36226;53.464;9.852;2023-11-21T06:23:05;9.93;;;5.88;;
50319;SDS011;36226;53.464;9.852;2023-11-21T06:25:30;11.10;;;6.18;;
50319;SDS011;36226;53.464;9.852;2023-11-21T06:27:58;12.82;;;6.95;;
50319;SDS011;36226;53.464;9.852;2023-11-21T06:30:23;10.80;;;5.95;;
50319;SDS011;36226;53.464;9.852;2023-11-21T06:32:49;13.90;;;6.82;;
50319;SDS011;36226;53.464;9.852;2023-11-21T06:35:16;11.05;;;6.28;;
50319;SDS011;36226;53.464;9.852;2023-11-21T06:37:41;10.43;;;6.32;;
50319;SDS011;36226;53.464;9.852;2023-11-21T06:40:12;11.52;;;5.80;;
50319;SDS011;36226;53.464;9.852;2023-11-21T06:42:40;9.57;;;5.97;;
50319;SDS011;36226;53.464;9.852;2023-11-21T06:45:06;13.88;;;8.38;;
50319;SDS011;36226;53.464;9.852;2023-11-21T06:47:32;23.40;;;14.27;;
50319;SDS011;36226;53.464;9.852;2023-11-21T06:49:58;23.02;;;12.90;;
50319;SDS011;36226;53.464;9.852;2023-11-21T06:52:23;19.38;;;9.75;;
50319;SDS011;36226;53.464;9.852;2023-11-21T06:54:49;16.25;;;9.63;;
50319;SDS011;36226;53.464;9.852;2023-11-21T06:57:14;14.40;;;8.50;;
50319;SDS011;36226;53.464;9.852;2023-11-21T06:59:40;16.50;;;10.00;;
50319;SDS011;36226;53.464;9.852;2023-11-21T07:02:05;16.90;;;10.50;;
50319;SDS011;36226;53.464;9.852;2023-11-21T07:04:31;16.48;;;10.38;;
50319;SDS011;36226;53.464;9.852;2023-11-21T07:07:03;15.75;;;9.68;;
50319;SDS011;36226;53.464;9.852;2023-11-21T07:09:29;14.85;;;9.70;;
50319;SDS011;36226;53.464;9.852;2023-11-21T07:11:56;13.65;;;8.95;;
50319;SDS011;36226;53.464;9.852;2023-11-21T07:14:21;14.13;;;8.57;;
50319;SDS011;36226;53.464;9.852;2023-11-21T07:16:46;13.00;;;8.00;;
50319;SDS011;36226;53.464;9.852;2023-11-21T07:19:12;16.38;;;8.15;;
50319;SDS011;36226;53.464;9.852;2023-11-21T07:21:38;14.32;;;7.90;;
50319;SDS011;36226;53.464;9.852;2023-11-21T07:24:05;12.10;;;7.93;;
50319;SDS011;36226;53.464;9.852;2023-11-21T07:26:31;13.75;;;7.90;;
50319;SDS011;36226;53.464;9.852;2023-11-21T07:28:58;14.77;;;8.57;;
50319;SDS011;36226;53.464;9.852;2023-11-21T07:31:24;14.57;;;8.35;;
50319;SDS011;36226;53.464;9.852;2023-11-21T07:33:49;15.18;;;8.88;;
50319;SDS011;36226;53.464;9.852;2023-11-21T07:36:15;14.57;;;7.82;;
50319;SDS011;36226;53.464;9.852;2023-11-21T07:38:43;15.70;;;7.28;;
50319;SDS011;36226;53.464;9.852;2023-11-21T07:41:08;14.68;;;8.07;;
50319;SDS011;36226;53.464;9.852;2023-11-21T07:43:34;15.18;;;7.93;;
50319;SDS011;36226;53.464;9.852;2023-11-21T07:46:00;15.95;;;8.80;;
50319;SDS011;36226;53.464;9.852;2023-11-21T07:48:29;15.82;;;8.63;;
50319;SDS011;36226;53.464;9.852;2023-11-21T07:50:56;13.13;;;7.90;;
50319;SDS011;36226;53.464;9.852;2023-11-21T07:53:23;14.93;;;7.70;;
50319;SDS011;36226;53.464;9.852;2023-11-21T07:55:48;12.88;;;7.45;;
50319;SDS011;36226;53.464;9.852;2023-11-21T07:58:14;11.98;;;7.40;;
50319;SDS011;36226;53.464;9.852;2023-11-21T08:00:39;14.65;;;7.72;;
50319;SDS011;36226;53.464;9.852;2023-11-21T08:03:05;17.08;;;8.07;;
50319;SDS011;36226;53.464;9.852;2023-11-21T08:05:30;12.05;;;7.28;;
50319;SDS011;36226;53.464;9.852;2023-11-21T08:07:56;15.35;;;7.72;;
50319;SDS011;36226;53.464;9.852;2023-11-21T08:10:22;14.48;;;7.88;;
50319;SDS011;36226;53.464;9.852;2023-11-21T08:12:47;13.60;;;7.88;;
50319;SDS011;36226;53.464;9.852;2023-11-21T08:15:13;15.02;;;8.18;;
50319;SDS011;36226;53.464;9.852;2023-11-21T08:17:39;15.45;;;7.68;;
50319;SDS011;36226;53.464;9.852;2023-11-21T08:20:05;14.63;;;7.80;;
50319;SDS011;36226;53.464;9.852;2023-11-21T08:22:31;13.45;;;7.60;;
50319;SDS011;36226;53.464;9.852;2023-11-21T08:24:57;11.30;;;6.85;;
50319;SDS011;36226;53.464;9.852;2023-11-21T08:27:23;12.50;;;7.25;;
50319;SDS011;36226;53.464;9.852;2023-11-21T08:29:48;11.38;;;7.47;;
50319;SDS011;36226;53.464;9.852;2023-11-21T08:32:13;11.75;;;6.75;;
50319;SDS011;36226;53.464;9.852;2023-11-21T08:34:39;11.35;;;6.95;;
50319;SDS011;36226;53.464;9.852;2023-11-21T08:37:05;13.02;;;7.43;;
50319;SDS011;36226;53.464;9.852;2023-11-21T08:39:30;13.52;;;6.63;;
50319;SDS011;36226;53.464;9.852;2023-11-21T08:41:57;11.05;;;6.90;;
50319;SDS011;36226;53.464;9.852;2023-11-21T08:44:22;10.88;;;6.60;;
50319;SDS011;36226;53.464;9.852;2023-11-21T08:46:48;13.43;;;6.60;;
50319;SDS011;36226;53.464;9.852;2023-11-21T08:49:14;12.13;;;6.15;;
50319;SDS011;36226;53.464;9.852;2023-11-21T08:51:40;10.38;;;5.88;;
50319;SDS011;36226;53.464;9.852;2023-11-21T08:54:05;11.52;;;6.13;;
50319;SDS011;36226;53.464;9.852;2023-11-21T08:56:33;10.95;;;6.07;;
50319;SDS011;36226;53.464;9.852;2023-11-21T08:58:59;10.85;;;5.45;;
50319;SDS011;36226;53.464;9.852;2023-11-21T09:01:27;9.55;;;5.80;;
50319;SDS011;36226;53.464;9.852;2023-11-21T09:03:52;10.50;;;5.30;;
50319;SDS011;36226;53.464;9.852;2023-11-21T09:06:18;11.25;;;5.85;;
50319;SDS011;36226;53.464;9.852;2023-11-21T09:08:44;10.60;;;5.53;;
50319;SDS011;36226;53.464;9.852;2023-11-21T09:11:09;9.38;;;4.88;;
50319;SDS011;36226;53.464;9.852;2023-11-21T09:13:35;7.95;;;5.13;;
50319;SDS011;36226;53.464;9.852;2023-11-21T09:16:01;10.50;;;5.38;;
50319;SDS011;36226;53.464;9.852;2023-11-21T09:18:26;8.77;;;5.28;;
50319;SDS011;36226;53.464;9.852;2023-11-21T09:20:51;9.90;;;5.85;;
50319;SDS011;36226;53.464;9.852;2023-11-21T09:23:17;12.40;;;5.18;;
50319;SDS011;36226;53.464;9.852;2023-11-21T09:25:42;11.77;;;5.78;;
50319;SDS011;36226;53.464;9.852;2023-11-21T09:28:11;9.43;;;5.63;;
50319;SDS011;36226;53.464;9.852;2023-11-21T09:30:37;6.97;;;4.85;;
50319;SDS011;36226;53.464;9.852;2023-11-21T09:33:03;10.52;;;5.75;;
50319;SDS011;36226;53.464;9.852;2023-11-21T09:35:32;8.15;;;5.32;;
50319;SDS011;36226;53.464;9.852;2023-11-21T09:37:58;7.43;;;4.78;;
50319;SDS011;36226;53.464;9.852;2023-11-21T09:40:23;6.47;;;4.03;;
50319;SDS011;36226;53.464;9.852;2023-11-21T09:42:52;8.95;;;5.22;;
50319;SDS011;36226;53.464;9.852;2023-11-21T09:47:53;7.03;;;4.30;;
50319;SDS011;36226;53.464;9.852;2023-11-21T09:50:20;8.00;;;4.45;;
50319;SDS011;36226;53.464;9.852;2023-11-21T09:55:35;8.15;;;5.13;;
50319;SDS011;36226;53.464;9.852;2023-11-21T09:58:05;8.23;;;4.85;;
50319;SDS011;36226;53.464;9.852;2023-11-21T10:00:32;8.98;;;4.55;;
50319;SDS011;36226;53.464;9.852;2023-11-21T10:02:58;6.53;;;4.28;;
50319;SDS011;36226;53.464;9.852;2023-11-21T10:05:24;9.57;;;3.47;;
50319;SDS011;36226;53.464;9.852;2023-11-21T10:07:49;7.70;;;3.95;;
50319;SDS011;36226;53.464;9.852;2023-11-21T10:10:16;7.72;;;4.15;;
50319;SDS011;36226;53.464;9.852;2023-11-21T10:12:43;6.80;;;3.72;;
50319;SDS011;36226;53.464;9.852;2023-11-21T10:15:18;8.48;;;4.15;;
50319;SDS011;36226;53.464;9.852;2023-11-21T10:17:46;5.40;;;3.55;;
50319;SDS011;36226;53.464;9.852;2023-11-21T10:20:14;6.32;;;3.95;;
50319;SDS011;36226;53.464;9.852;2023-11-21T10:22:40;5.20;;;3.50;;
50319;SDS011;36226;53.464;9.852;2023-11-21T10:25:07;4.90;;;3.30;;
50319;SDS011;36226;53.464;9.852;2023-11-21T10:27:33;6.78;;;3.85;;
50319;SDS011;36226;53.464;9.852;2023-11-21T10:30:02;5.80;;;3.50;;
50319;SDS011;36226;53.464;9.852;2023-11-21T10:32:29;6.57;;;3.95;;
50319;SDS011;36226;53.464;9.852;2023-11-21T10:34:57;6.45;;;3.80;;
50319;SDS011;36226;53.464;9.852;2023-11-21T10:37:25;6.47;;;3.60;;
50319;SDS011;36226;53.464;9.852;2023-11-21T10:39:55;5.22;;;3.60;;
50319;SDS011;36226;53.464;9.852;2023-11-21T10:42:22;5.68;;;3.17;;
50319;SDS011;36226;53.464;9.852;2023-11-21T10:44:49;5.50;;;3.67;;
50319;SDS011;36226;53.464;9.852;2023-11-21T10:47:14;6.30;;;3.75;;
50319;SDS011;36226;53.464;9.852;2023-11-21T10:49:40;5.88;;;3.60;;
50319;SDS011;36226;53.464;9.852;2023-11-21T10:52:05;5.22;;;3.33;;
50319;SDS011;36226;53.464;9.852;2023-11-21T10:54:31;5.80;;;3.67;;
50319;SDS011;36226;53.464;9.852;2023-11-21T10:56:57;7.15;;;3.70;;
50319;SDS011;36226;53.464;9.852;2023-11-21T10:59:24;6.45;;;3.70;;
50319;SDS011;36226;53.464;9.852;2023-11-21T11:01:51;5.18;;;3.50;;
50319;SDS011;36226;53.464;9.852;2023-11-21T11:04:18;5.28;;;3.45;;
50319;SDS011;36226;53.464;9.852;2023-11-21T11:06:44;5.70;;;3.58;;
50319;SDS011;36226;53.464;9.852;2023-11-21T11:09:16;5.28;;;3.38;;
50319;SDS011;36226;53.464;9.852;2023-11-21T11:11:42;5.88;;;3.50;;
50319;SDS011;36226;53.464;9.852;2023-11-21T11:14:12;5.85;;;2.90;;
50319;SDS011;36226;53.464;9.852;2023-11-21T11:16:38;4.38;;;2.95;;
50319;SDS011;36226;53.464;9.852;2023-11-21T11:19:10;4.63;;;2.70;;
50319;SDS011;36226;53.464;9.852;2023-11-21T11:35:17;8.40;;;4.80;;
50319;SDS011;36226;53.464;9.852;2023-11-21T11:37:46;5.70;;;3.28;;
50319;SDS011;36226;53.464;9.852;2023-11-21T11:40:12;5.65;;;3.60;;
50319;SDS011;36226;53.464;9.852;2023-11-21T11:42:37;12.45;;;3.22;;
50319;SDS011;36226;53.464;9.852;2023-11-21T11:45:16;6.10;;;3.15;;
50319;SDS011;36226;53.464;9.852;2023-11-21T11:47:43;8.00;;;4.15;;
50319;SDS011;36226;53.464;9.852;2023-11-21T11:50:09;5.15;;;2.95;;
50319;SDS011;36226;53.464;9.852;2023-11-21T11:52:51;5.03;;;3.17;;
50319;SDS011;36226;53.464;9.852;2023-11-21T11:55:20;4.90;;;3.10;;
50319;SDS011;36226;53.464;9.852;2023-11-21T11:57:47;5.70;;;2.90;;
50319;SDS011;36226;53.464;9.852;2023-11-21T12:00:33;6.65;;;3.30;;
50319;SDS011;36226;53.464;9.852;2023-11-21T12:05:33;6.90;;;3.90;;
50319;SDS011;36226;53.464;9.852;2023-11-21T12:08:10;5.68;;;3.35;;
50319;SDS011;36226;53.464;9.852;2023-11-21T12:10:37;5.57;;;3.47;;
50319;SDS011;36226;53.464;9.852;2023-11-21T12:13:08;9.63;;;3.92;;
50319;SDS011;36226;53.464;9.852;2023-11-21T12:15:35;6.95;;;3.97;;
50319;SDS011;36226;53.464;9.852;2023-11-21T12:18:00;5.38;;;3.60;;
50319;SDS011;36226;53.464;9.852;2023-11-21T12:20:26;6.07;;;3.70;;
50319;SDS011;36226;53.464;9.852;2023-11-21T12:22:56;5.90;;;3.72;;
50319;SDS011;36226;53.464;9.852;2023-11-21T12:25:29;5.20;;;3.58;;
50319;SDS011;36226;53.464;9.852;2023-11-21T12:27:57;4.57;;;3.03;;
50319;SDS011;36226;53.464;9.852;2023-11-21T12:30:23;6.78;;;3.15;;
50319;SDS011;36226;53.464;9.852;2023-11-21T12:32:50;4.40;;;2.92;;
50319;SDS011;36226;53.464;9.852;2023-11-21T12:35:17;8.40;;;3.60;;
50319;SDS011;36226;53.464;9.852;2023-11-21T12:37:44;4.45;;;3.05;;
50319;SDS011;36226;53.464;9.852;2023-11-21T12:40:11;4.45;;;3.08;;
50319;SDS011;36226;53.464;9.852;2023-11-21T12:42:43;6.65;;;3.45;;
50319;SDS011;36226;53.464;9.852;2023-11-21T12:47:45;6.43;;;3.58;;
50319;SDS011;36226;53.464;9.852;2023-11-21T12:50:20;7.50;;;3.08;;
50319;SDS011;36226;53.464;9.852;2023-11-21T12:52:51;7.20;;;3.40;;
50319;SDS011;36226;53.464;9.852;2023-11-21T12:55:19;6.47;;;3.30;;
50319;SDS011;36226;53.464;9.852;2023-11-21T12:57:53;6.82;;;2.90;;
50319;SDS011;36226;53.464;9.852;2023-11-21T13:00:33;4.68;;;2.88;;
50319;SDS011;36226;53.464;9.852;2023-11-21T13:03:02;4.47;;;2.85;;
50319;SDS011;36226;53.464;9.852;2023-11-21T13:05:30;8.07;;;2.70;;
50319;SDS011;36226;53.464;9.852;2023-11-21T13:07:56;6.22;;;3.00;;
50319;SDS011;36226;53.464;9.852;2023-11-21T13:10:23;4.97;;;2.90;;
50319;SDS011;36226;53.464;9.852;2023-11-21T13:12:52;5.93;;;3.22;;
50319;SDS011;36226;53.464;9.852;2023-11-21T13:15:18;5.07;;;2.72;;
50319;SDS011;36226;53.464;9.852;2023-11-21T13:17:44;4.60;;;2.97;;
50319;SDS011;36226;53.464;9.852;2023-11-21T13:20:10;3.50;;;2.80;;
50319;SDS011;36226;53.464;9.852;2023-11-21T13:22:54;4.82;;;3.10;;
50319;SDS011;36226;53.464;9.852;2023-11-21T13:25:23;3.65;;;2.80;;
50319;SDS011;36226;53.464;9.852;2023-11-21T13:27:52;8.13;;;3.03;;
50319;SDS011;36226;53.464;9.852;2023-11-21T13:30:18;5.18;;;3.13;;
50319;SDS011;36226;53.464;9.852;2023-11-21T13:32:48;4.70;;;2.92;;
50319;SDS011;36226;53.464;9.852;2023-11-21T13:35:16;6.20;;;2.95;;
50319;SDS011;36226;53.464;9.852;2023-11-21T13:38:12;6.05;;;3.00;;
50319;SDS011;36226;53.464;9.852;2023-11-21T13:40:38;5.38;;;3.20;;
50319;SDS011;36226;53.464;9.852;2023-11-21T13:43:09;3.85;;;2.42;;
50319;SDS011;36226;53.464;9.852;2023-11-21T13:45:38;5.90;;;2.83;;
50319;SDS011;36226;53.464;9.852;2023-11-21T13:48:04;3.58;;;2.40;;
50319;SDS011;36226;53.464;9.852;2023-11-21T13:50:34;4.53;;;2.70;;
50319;SDS011;36226;53.464;9.852;2023-11-21T13:53:01;3.63;;;2.50;;
50319;SDS011;36226;53.464;9.852;2023-11-21T13:55:43;3.92;;;2.40;;
50319;SDS011;36226;53.464;9.852;2023-11-21T13:58:10;3.85;;;2.53;;
50319;SDS011;36226;53.464;9.852;2023-11-21T14:00:41;4.32;;;2.70;;
50319;SDS011;36226;53.464;9.852;2023-11-21T14:03:10;6.07;;;2.72;;
50319;SDS011;36226;53.464;9.852;2023-11-21T14:05:44;8.07;;;2.90;;
50319;SDS011;36226;53.464;9.852;2023-11-21T14:08:12;4.13;;;2.85;;
50319;SDS011;36226;53.464;9.852;2023-11-21T14:10:41;4.70;;;2.88;;
50319;SDS011;36226;53.464;9.852;2023-11-21T14:13:14;4.57;;;2.58;;
50319;SDS011;36226;53.464;9.852;2023-11-21T14:15:41;4.10;;;2.78;;
50319;SDS011;36226;53.464;9.852;2023-11-21T14:18:10;5.55;;;2.80;;
50319;SDS011;36226;53.464;9.852;2023-11-21T14:20:38;6.15;;;3.00;;
50319;SDS011;36226;53.464;9.852;2023-11-21T14:23:05;4.32;;;2.88;;
50319;SDS011;36226;53.464;9.852;2023-11-21T14:25:32;5.10;;;2.55;;
50319;SDS011;36226;53.464;9.852;2023-11-21T14:27:58;4.22;;;2.70;;
50319;SDS011;36226;53.464;9.852;2023-11-21T14:30:23;3.78;;;2.58;;
50319;SDS011;36226;53.464;9.852;2023-11-21T14:32:49;4.30;;;2.70;;
50319;SDS011;36226;53.464;9.852;2023-11-21T14:35:16;3.55;;;2.35;;
50319;SDS011;36226;53.464;9.852;2023-11-21T14:37:42;6.47;;;2.97;;
50319;SDS011;36226;53.464;9.852;2023-11-21T14:40:08;4.78;;;2.88;;
50319;SDS011;36226;53.464;9.852;2023-11-21T14:42:34;4.13;;;2.72;;
50319;SDS011;36226;53.464;9.852;2023-11-21T14:45:02;5.18;;;2.97;;
50319;SDS011;36226;53.464;9.852;2023-11-21T14:47:32;5.30;;;2.92;;
50319;SDS011;36226;53.464;9.852;2023-11-21T14:49:59;6.13;;;3.10;;
50319;SDS011;36226;53.464;9.852;2023-11-21T14:52:31;6.63;;;2.70;;
50319;SDS011;36226;53.464;9.852;2023-11-21T14:55:02;6.05;;;2.50;;
50319;SDS011;36226;53.464;9.852;2023-11-21T14:57:45;4.75;;;2.78;;
50319;SDS011;36226;53.464;9.852;2023-11-21T15:00:15;3.63;;;2.40;;
50319;SDS011;36226;53.464;9.852;2023-11-21T15:03:02;5.32;;;2.63;;